createdAt,value
2018-02-04T00:00:47.430Z,1004.76
2018-02-04T00:01:47.243Z,1004.75
2018-02-04T00:02:48.375Z,1004.75
2018-02-04T00:03:47.170Z,1004.76
2018-02-04T00:04:47.254Z,1004.79
2018-02-04T00:05:47.107Z,1004.82
2018-02-04T00:06:47.161Z,1004.83
2018-02-04T00:07:47.050Z,1004.84
2018-02-04T00:08:47.122Z,1004.88
2018-02-04T00:09:46.989Z,1004.87
2018-02-04T00:10:47.088Z,1004.92
2018-02-04T00:11:46.944Z,1004.92
2018-02-04T00:12:47.001Z,1004.98
2018-02-04T00:13:46.856Z,1004.95
2018-02-04T00:14:46.913Z,1004.90
2018-02-04T00:15:46.793Z,1004.94
2018-02-04T00:16:46.927Z,1004.96
2018-02-04T00:17:46.725Z,1004.95
2018-02-04T00:18:46.835Z,1004.98
2018-02-04T00:19:46.660Z,1005.03
2018-02-04T00:20:46.748Z,1005.00
2018-02-04T00:21:46.595Z,1005.02
2018-02-04T00:22:47.682Z,1005.07
2018-02-04T00:23:46.530Z,1005.07
2018-02-04T00:24:46.675Z,1005.08
2018-02-04T00:25:46.465Z,1005.13
2018-02-04T00:26:46.437Z,1005.07
2018-02-04T00:27:46.491Z,1005.06
2018-02-04T00:28:46.409Z,1005.08
2018-02-04T00:29:47.425Z,1005.12
2018-02-04T00:30:46.307Z,1005.08
2018-02-04T00:31:46.413Z,1005.14
2018-02-04T00:32:46.244Z,1005.16
2018-02-04T00:33:50.938Z,1005.17
2018-02-04T00:34:46.180Z,1005.16
2018-02-04T00:35:46.237Z,1005.22
2018-02-04T00:36:46.114Z,1005.22
2018-02-04T00:37:46.252Z,1005.27
2018-02-04T00:38:46.050Z,1005.27
2018-02-04T00:39:46.167Z,1005.30
2018-02-04T00:40:45.988Z,1005.24
2018-02-04T00:41:46.075Z,1005.33
2018-02-04T00:42:45.916Z,1005.37
2018-02-04T00:43:46.029Z,1005.33
2018-02-04T00:44:45.859Z,1005.32
2018-02-04T00:45:45.999Z,1005.39
2018-02-04T00:46:45.789Z,1005.38
2018-02-04T00:47:45.911Z,1005.39
2018-02-04T00:48:45.726Z,1005.42
2018-02-04T00:49:45.692Z,1005.47
2018-02-04T00:50:45.827Z,1005.42
2018-02-04T00:51:45.641Z,1005.48
2018-02-04T00:52:46.713Z,1005.49
2018-02-04T00:53:45.565Z,1005.49
2018-02-04T00:54:45.602Z,1005.50
2018-02-04T00:55:45.497Z,1005.48
2018-02-04T00:56:46.545Z,1005.51
2018-02-04T00:57:45.429Z,1005.54
2018-02-04T00:58:45.525Z,1005.55
2018-02-04T00:59:45.376Z,1005.54
2018-02-04T01:00:45.440Z,1005.55
2018-02-04T01:01:45.298Z,1005.60
2018-02-04T01:02:45.346Z,1005.61
2018-02-04T01:03:45.232Z,1005.58
2018-02-04T01:04:45.268Z,1005.63
2018-02-04T01:05:45.172Z,1005.66
2018-02-04T01:06:45.275Z,1005.68
2018-02-04T01:07:45.180Z,1005.69
2018-02-04T01:08:46.211Z,1005.72
2018-02-04T01:09:45.202Z,1005.72
2018-02-04T01:10:45.097Z,1005.73
2018-02-04T01:11:44.991Z,1005.78
2018-02-04T01:12:45.012Z,1005.81
2018-02-04T01:13:44.909Z,1005.82
2018-02-04T01:14:45.038Z,1005.85
2018-02-04T01:15:44.860Z,1005.88
2018-02-04T01:16:49.850Z,1005.90
2018-02-04T01:17:44.775Z,1005.87
2018-02-04T01:18:44.844Z,1005.88
2018-02-04T01:19:44.709Z,1005.95
2018-02-04T01:20:45.779Z,1005.89
2018-02-04T01:21:44.647Z,1005.93
2018-02-04T01:22:45.704Z,1005.94
2018-02-04T01:23:44.585Z,1005.96
2018-02-04T01:24:44.680Z,1005.98
2018-02-04T01:25:44.518Z,1005.97
2018-02-04T01:26:44.478Z,1006.00
2018-02-04T01:27:46.544Z,1006.08
2018-02-04T01:28:44.425Z,1006.03
2018-02-04T01:29:44.508Z,1006.08
2018-02-04T01:30:44.360Z,1006.06
2018-02-04T01:31:44.446Z,1006.05
2018-02-04T01:32:44.285Z,1006.06
2018-02-04T01:33:44.341Z,1006.07
2018-02-04T01:34:44.220Z,1006.11
2018-02-04T01:35:44.353Z,1006.15
2018-02-04T01:36:44.152Z,1006.09
2018-02-04T01:37:44.264Z,1006.12
2018-02-04T01:38:44.091Z,1006.10
2018-02-04T01:39:44.177Z,1006.14
2018-02-04T01:40:44.030Z,1006.15
2018-02-04T01:41:43.994Z,1006.16
2018-02-04T01:42:44.093Z,1006.15
2018-02-04T01:43:43.926Z,1006.21
2018-02-04T01:44:46.056Z,1006.20
2018-02-04T01:45:43.862Z,1006.20
2018-02-04T01:46:43.916Z,1006.23
2018-02-04T01:47:43.792Z,1006.21
2018-02-04T01:48:43.928Z,1006.22
2018-02-04T01:49:43.730Z,1006.24
2018-02-04T01:50:43.840Z,1006.23
2018-02-04T01:51:43.664Z,1006.22
2018-02-04T01:52:43.749Z,1006.21
2018-02-04T01:53:43.603Z,1006.22
2018-02-04T01:54:43.658Z,1006.20
2018-02-04T01:55:43.528Z,1006.20
2018-02-04T01:56:44.593Z,1006.19
2018-02-04T01:57:43.469Z,1006.21
2018-02-04T01:58:45.525Z,1006.20
2018-02-04T01:59:43.399Z,1006.21
2018-02-04T02:00:43.498Z,1006.26
2018-02-04T02:01:43.332Z,1006.26
2018-02-04T02:02:43.401Z,1006.24
2018-02-04T02:03:43.282Z,1006.24
2018-02-04T02:04:44.339Z,1006.24
2018-02-04T02:05:43.202Z,1006.26
2018-02-04T02:06:43.326Z,1006.27
2018-02-04T02:07:43.132Z,1006.27
2018-02-04T02:08:43.240Z,1006.25
2018-02-04T02:09:43.070Z,1006.24
2018-02-04T02:10:45.199Z,1006.31
2018-02-04T02:11:43.030Z,1006.32
2018-02-04T02:12:42.974Z,1006.32
2018-02-04T02:13:44.093Z,1006.33
2018-02-04T02:14:42.907Z,1006.32
2018-02-04T02:15:42.946Z,1006.32
2018-02-04T02:16:42.845Z,1006.27
2018-02-04T02:17:42.860Z,1006.25
2018-02-04T02:18:42.776Z,1006.28
2018-02-04T02:19:42.873Z,1006.27
2018-02-04T02:20:42.715Z,1006.35
2018-02-04T02:21:43.810Z,1006.37
2018-02-04T02:22:42.644Z,1006.35
2018-02-04T02:23:48.428Z,1006.28
2018-02-04T02:24:42.576Z,1006.37
2018-02-04T02:25:43.642Z,1006.41
2018-02-04T02:26:42.510Z,1006.43
2018-02-04T02:27:42.624Z,1006.44
2018-02-04T02:28:42.453Z,1006.42
2018-02-04T02:29:42.532Z,1006.46
2018-02-04T02:30:42.387Z,1006.49
2018-02-04T02:31:43.468Z,1006.52
2018-02-04T02:32:42.315Z,1006.48
2018-02-04T02:33:42.356Z,1006.47
2018-02-04T02:34:42.252Z,1006.56
2018-02-04T02:35:42.368Z,1006.49
2018-02-04T02:36:42.185Z,1006.58
2018-02-04T02:37:42.287Z,1006.56
2018-02-04T02:38:42.115Z,1006.58
2018-02-04T02:39:42.195Z,1006.61
2018-02-04T02:40:42.053Z,1006.59
2018-02-04T02:41:44.172Z,1006.65
2018-02-04T02:42:41.985Z,1006.62
2018-02-04T02:43:42.012Z,1006.68
2018-02-04T02:44:41.927Z,1006.67
2018-02-04T02:45:41.904Z,1006.65
2018-02-04T02:46:47.870Z,1006.61
2018-02-04T02:47:41.822Z,1006.70
2018-02-04T02:48:41.840Z,1006.66
2018-02-04T02:49:41.755Z,1006.73
2018-02-04T02:50:42.879Z,1006.71
2018-02-04T02:51:41.697Z,1006.74
2018-02-04T02:52:41.770Z,1006.74
2018-02-04T02:53:41.629Z,1006.80
2018-02-04T02:54:41.681Z,1006.77
2018-02-04T02:55:41.572Z,1006.80
2018-02-04T02:56:41.588Z,1006.83
2018-02-04T02:57:41.490Z,1006.85
2018-02-04T02:58:41.609Z,1006.83
2018-02-04T02:59:41.423Z,1006.84
2018-02-04T03:00:41.515Z,1006.87
2018-02-04T03:01:41.359Z,1006.92
2018-02-04T03:02:41.426Z,1006.88
2018-02-04T03:03:41.301Z,1006.93
2018-02-04T03:04:41.335Z,1006.92
2018-02-04T03:05:41.231Z,1006.97
2018-02-04T03:06:41.190Z,1006.94
2018-02-04T03:07:41.165Z,1006.97
2018-02-04T03:08:41.260Z,1006.93
2018-02-04T03:09:41.102Z,1006.98
2018-02-04T03:10:41.171Z,1007.00
2018-02-04T03:11:41.029Z,1006.98
2018-02-04T03:12:42.110Z,1006.97
2018-02-04T03:13:40.972Z,1006.98
2018-02-04T03:14:41.107Z,1007.06
2018-02-04T03:15:40.908Z,1007.07
2018-02-04T03:16:41.012Z,1007.04
2018-02-04T03:17:40.850Z,1007.04
2018-02-04T03:18:41.947Z,1007.09
2018-02-04T03:19:40.769Z,1007.09
2018-02-04T03:20:40.835Z,1007.12
2018-02-04T03:21:40.703Z,1007.18
2018-02-04T03:22:47.401Z,1007.16
2018-02-04T03:23:40.639Z,1007.14
2018-02-04T03:24:41.786Z,1007.21
2018-02-04T03:25:40.572Z,1007.27
2018-02-04T03:26:40.669Z,1007.24
2018-02-04T03:27:40.505Z,1007.30
2018-02-04T03:28:40.581Z,1007.29
2018-02-04T03:29:40.444Z,1007.27
2018-02-04T03:30:40.492Z,1007.31
2018-02-04T03:31:40.376Z,1007.26
2018-02-04T03:32:40.503Z,1007.30
2018-02-04T03:33:40.312Z,1007.31
2018-02-04T03:34:40.414Z,1007.34
2018-02-04T03:35:40.256Z,1007.32
2018-02-04T03:36:41.353Z,1007.31
2018-02-04T03:37:40.181Z,1007.38
2018-02-04T03:38:40.155Z,1007.41
2018-02-04T03:39:40.120Z,1007.40
2018-02-04T03:40:40.259Z,1007.46
2018-02-04T03:41:40.062Z,1007.48
2018-02-04T03:42:40.164Z,1007.52
2018-02-04T03:43:39.982Z,1007.49
2018-02-04T03:44:40.074Z,1007.52
2018-02-04T03:45:39.922Z,1007.51
2018-02-04T03:46:45.930Z,1007.58
2018-02-04T03:47:39.854Z,1007.57
2018-02-04T03:48:40.004Z,1007.65
2018-02-04T03:49:39.786Z,1007.62
2018-02-04T03:50:39.913Z,1007.69
2018-02-04T03:51:39.723Z,1007.72
2018-02-04T03:52:39.723Z,1007.68
2018-02-04T03:53:39.667Z,1007.72
2018-02-04T03:54:41.786Z,1007.74
2018-02-04T03:55:39.595Z,1007.76
2018-02-04T03:56:39.647Z,1007.72
2018-02-04T03:57:39.528Z,1007.76
2018-02-04T03:58:40.686Z,1007.73
2018-02-04T03:59:39.458Z,1007.74
2018-02-04T04:00:39.568Z,1007.80
2018-02-04T04:01:39.400Z,1007.75
2018-02-04T04:02:40.506Z,1007.82
2018-02-04T04:03:39.337Z,1007.81
2018-02-04T04:04:39.389Z,1007.79
2018-02-04T04:05:39.266Z,1007.83
2018-02-04T04:06:40.327Z,1007.83
2018-02-04T04:07:39.206Z,1007.86
2018-02-04T04:08:39.317Z,1007.82
2018-02-04T04:09:39.145Z,1007.87
2018-02-04T04:10:39.102Z,1007.86
2018-02-04T04:11:39.075Z,1007.88
2018-02-04T04:12:39.135Z,1007.88
2018-02-04T04:13:39.012Z,1007.91
2018-02-04T04:14:39.150Z,1007.93
2018-02-04T04:15:38.939Z,1007.96
2018-02-04T04:16:39.066Z,1007.93
2018-02-04T04:17:38.877Z,1008.02
2018-02-04T04:18:38.978Z,1007.99
2018-02-04T04:19:38.810Z,1008.01
2018-02-04T04:20:39.910Z,1008.06
2018-02-04T04:21:38.743Z,1008.05
2018-02-04T04:22:38.913Z,1008.07
2018-02-04T04:23:38.678Z,1008.09
2018-02-04T04:24:39.837Z,1008.08
2018-02-04T04:25:38.618Z,1008.13
2018-02-04T04:26:38.723Z,1008.11
2018-02-04T04:27:38.553Z,1008.17
2018-02-04T04:28:38.633Z,1008.18
2018-02-04T04:29:38.490Z,1008.16
2018-02-04T04:30:38.646Z,1008.22
2018-02-04T04:31:38.418Z,1008.23
2018-02-04T04:32:40.503Z,1008.24
2018-02-04T04:33:38.361Z,1008.26
2018-02-04T04:34:38.467Z,1008.24
2018-02-04T04:35:38.295Z,1008.29
2018-02-04T04:36:38.381Z,1008.29
2018-02-04T04:37:38.228Z,1008.30
2018-02-04T04:38:39.319Z,1008.32
2018-02-04T04:39:38.161Z,1008.31
2018-02-04T04:40:38.304Z,1008.36
2018-02-04T04:41:38.097Z,1008.38
2018-02-04T04:42:38.218Z,1008.37
2018-02-04T04:43:38.034Z,1008.33
2018-02-04T04:44:38.124Z,1008.38
2018-02-04T04:45:37.974Z,1008.41
2018-02-04T04:46:38.038Z,1008.40
2018-02-04T04:47:37.904Z,1008.41
2018-02-04T04:48:38.052Z,1008.41
2018-02-04T04:49:37.846Z,1008.40
2018-02-04T04:50:42.468Z,1008.45
2018-02-04T04:51:37.773Z,1008.39
2018-02-04T04:52:37.876Z,1008.43
2018-02-04T04:53:37.710Z,1008.42
2018-02-04T04:54:37.787Z,1008.44
2018-02-04T04:55:37.653Z,1008.47
2018-02-04T04:56:39.751Z,1008.51
2018-02-04T04:57:37.576Z,1008.51
2018-02-04T04:58:37.716Z,1008.50
2018-02-04T04:59:37.509Z,1008.56
2018-02-04T05:00:38.652Z,1008.46
2018-02-04T05:01:37.445Z,1008.52
2018-02-04T05:02:37.545Z,1008.54
2018-02-04T05:03:37.381Z,1008.54
2018-02-04T05:04:37.554Z,1008.60
2018-02-04T05:05:37.315Z,1008.61
2018-02-04T05:06:37.465Z,1008.58
2018-02-04T05:07:37.250Z,1008.61
2018-02-04T05:08:38.398Z,1008.58
2018-02-04T05:09:37.187Z,1008.56
2018-02-04T05:10:37.289Z,1008.61
2018-02-04T05:11:37.123Z,1008.65
2018-02-04T05:12:38.218Z,1008.66
2018-02-04T05:13:37.053Z,1008.63
2018-02-04T05:14:37.020Z,1008.71
2018-02-04T05:15:38.140Z,1008.68
2018-02-04T05:16:36.988Z,1008.75
2018-02-04T05:17:37.127Z,1008.74
2018-02-04T05:18:36.893Z,1008.75
2018-02-04T05:19:38.064Z,1008.73
2018-02-04T05:20:36.837Z,1008.76
2018-02-04T05:21:37.975Z,1008.74
2018-02-04T05:22:36.760Z,1008.79
2018-02-04T05:23:36.859Z,1008.79
2018-02-04T05:24:36.695Z,1008.79
2018-02-04T05:25:36.930Z,1008.81
2018-02-04T05:26:36.629Z,1008.81
2018-02-04T05:27:36.786Z,1008.80
2018-02-04T05:28:36.562Z,1008.82
2018-02-04T05:29:36.697Z,1008.83
2018-02-04T05:30:36.500Z,1008.82
2018-02-04T05:31:36.610Z,1008.83
2018-02-04T05:32:36.444Z,1008.85
2018-02-04T05:33:36.621Z,1008.87
2018-02-04T05:34:36.373Z,1008.88
2018-02-04T05:35:37.455Z,1008.90
2018-02-04T05:36:36.307Z,1008.92
2018-02-04T05:37:36.339Z,1008.90
2018-02-04T05:38:36.250Z,1008.98
2018-02-04T05:39:36.252Z,1008.97
2018-02-04T05:40:36.190Z,1008.98
2018-02-04T05:41:36.264Z,1009.00
2018-02-04T05:42:36.120Z,1009.03
2018-02-04T05:43:36.181Z,1009.03
2018-02-04T05:44:36.053Z,1008.97
2018-02-04T05:45:36.088Z,1009.02
2018-02-04T05:46:35.996Z,1009.02
2018-02-04T05:47:35.996Z,1009.02
2018-02-04T05:48:35.930Z,1009.05
2018-02-04T05:49:36.016Z,1009.03
2018-02-04T05:50:35.870Z,1009.03
2018-02-04T05:51:35.921Z,1009.02
2018-02-04T05:52:35.800Z,1008.97
2018-02-04T05:53:35.837Z,1009.01
2018-02-04T05:54:35.736Z,1008.98
2018-02-04T05:55:35.749Z,1008.97
2018-02-04T05:56:35.685Z,1008.96
2018-02-04T05:57:36.683Z,1008.99
2018-02-04T05:58:35.615Z,1008.98
2018-02-04T05:59:35.675Z,1008.97
2018-02-04T06:00:35.546Z,1008.97
2018-02-04T06:01:35.583Z,1008.96
2018-02-04T06:02:35.486Z,1009.06
2018-02-04T06:03:35.495Z,1009.04
2018-02-04T06:04:35.421Z,1009.03
2018-02-04T06:05:35.507Z,1009.06
2018-02-04T06:06:35.360Z,1009.09
2018-02-04T06:07:35.417Z,1009.10
2018-02-04T06:08:35.356Z,1009.18
2018-02-04T06:09:35.261Z,1009.20
2018-02-04T06:10:35.337Z,1009.17
2018-02-04T06:11:35.193Z,1009.19
2018-02-04T06:12:35.248Z,1009.20
2018-02-04T06:13:35.264Z,1009.18
2018-02-04T06:14:35.159Z,1009.21
2018-02-04T06:15:35.070Z,1009.24
2018-02-04T06:16:35.172Z,1009.27
2018-02-04T06:17:35.002Z,1009.28
2018-02-04T06:18:35.083Z,1009.30
2018-02-04T06:19:34.979Z,1009.33
2018-02-04T06:20:35.148Z,1009.36
2018-02-04T06:21:34.879Z,1009.35
2018-02-04T06:22:34.903Z,1009.41
2018-02-04T06:23:34.813Z,1009.40
2018-02-04T06:24:34.917Z,1009.42
2018-02-04T06:25:34.754Z,1009.41
2018-02-04T06:26:34.825Z,1009.43
2018-02-04T06:27:34.684Z,1009.44
2018-02-04T06:28:34.669Z,1009.42
2018-02-04T06:29:34.627Z,1009.47
2018-02-04T06:30:34.650Z,1009.43
2018-02-04T06:31:34.566Z,1009.39
2018-02-04T06:32:34.669Z,1009.47
2018-02-04T06:33:34.498Z,1009.43
2018-02-04T06:34:34.573Z,1009.47
2018-02-04T06:35:34.438Z,1009.49
2018-02-04T06:36:34.424Z,1009.49
2018-02-04T06:37:34.498Z,1009.47
2018-02-04T06:38:34.338Z,1009.41
2018-02-04T06:39:34.405Z,1009.42
2018-02-04T06:40:34.287Z,1009.46
2018-02-04T06:41:34.319Z,1009.45
2018-02-04T06:42:34.216Z,1009.52
2018-02-04T06:43:34.180Z,1009.50
2018-02-04T06:44:34.236Z,1009.43
2018-02-04T06:45:34.117Z,1009.40
2018-02-04T06:46:34.150Z,1009.39
2018-02-04T06:47:34.059Z,1009.38
2018-02-04T06:48:34.161Z,1009.42
2018-02-04T06:49:33.998Z,1009.46
2018-02-04T06:50:34.074Z,1009.46
2018-02-04T06:51:33.936Z,1009.51
2018-02-04T06:52:33.984Z,1009.54
2018-02-04T06:53:33.872Z,1009.60
2018-02-04T06:54:33.893Z,1009.65
2018-02-04T06:55:33.809Z,1009.63
2018-02-04T06:56:33.906Z,1009.63
2018-02-04T06:57:33.741Z,1009.67
2018-02-04T06:58:33.820Z,1009.70
2018-02-04T06:59:33.683Z,1009.76
2018-02-04T07:00:33.733Z,1009.78
2018-02-04T07:01:33.622Z,1009.75
2018-02-04T07:02:33.639Z,1009.82
2018-02-04T07:03:33.571Z,1009.83
2018-02-04T07:04:33.667Z,1009.83
2018-02-04T07:05:33.492Z,1009.87
2018-02-04T07:06:33.580Z,1009.90
2018-02-04T07:07:33.431Z,1009.90
2018-02-04T07:08:33.491Z,1009.90
2018-02-04T07:09:33.365Z,1009.90
2018-02-04T07:10:33.408Z,1009.93
2018-02-04T07:11:33.302Z,1009.94
2018-02-04T07:12:33.411Z,1009.90
2018-02-04T07:13:33.234Z,1009.90
2018-02-04T07:14:33.323Z,1009.99
2018-02-04T07:15:33.168Z,1009.94
2018-02-04T07:16:33.234Z,1009.95
2018-02-04T07:17:33.111Z,1010.00
2018-02-04T07:18:33.152Z,1010.01
2018-02-04T07:19:33.042Z,1010.01
2018-02-04T07:20:33.155Z,1010.02
2018-02-04T07:21:33.031Z,1010.01
2018-02-04T07:22:33.073Z,1010.04
2018-02-04T07:23:32.927Z,1009.99
2018-02-04T07:24:32.977Z,1010.06
2018-02-04T07:25:32.862Z,1010.07
2018-02-04T07:26:32.890Z,1010.08
2018-02-04T07:27:32.794Z,1010.09
2018-02-04T07:28:32.751Z,1010.10
2018-02-04T07:29:32.721Z,1010.16
2018-02-04T07:30:33.841Z,1010.13
2018-02-04T07:31:32.663Z,1010.19
2018-02-04T07:32:39.483Z,1010.19
2018-02-04T07:33:32.598Z,1010.23
2018-02-04T07:34:33.658Z,1010.25
2018-02-04T07:35:32.540Z,1010.26
2018-02-04T07:36:37.464Z,1010.25
2018-02-04T07:37:32.470Z,1010.26
2018-02-04T07:38:33.584Z,1010.34
2018-02-04T07:39:32.406Z,1010.29
2018-02-04T07:40:34.530Z,1010.27
2018-02-04T07:41:32.339Z,1010.32
2018-02-04T07:42:32.364Z,1010.32
2018-02-04T07:43:32.285Z,1010.37
2018-02-04T07:44:32.371Z,1010.35
2018-02-04T07:45:32.217Z,1010.37
2018-02-04T07:46:34.369Z,1010.40
2018-02-04T07:47:32.167Z,1010.39
2018-02-04T07:48:32.188Z,1010.44
2018-02-04T07:49:32.132Z,1010.47
2018-02-04T07:50:33.231Z,1010.49
2018-02-04T07:51:32.064Z,1010.50
2018-02-04T07:52:37.955Z,1010.53
2018-02-04T07:53:31.960Z,1010.51
2018-02-04T07:54:31.928Z,1010.47
2018-02-04T07:55:31.901Z,1010.51
2018-02-04T07:56:32.993Z,1010.51
2018-02-04T07:57:31.840Z,1010.54
2018-02-04T07:58:31.956Z,1010.59
2018-02-04T07:59:31.770Z,1010.64
2018-02-04T08:00:32.886Z,1010.66
2018-02-04T08:01:31.726Z,1010.64
2018-02-04T08:02:32.799Z,1010.69
2018-02-04T08:03:31.645Z,1010.66
2018-02-04T08:04:31.686Z,1010.75
2018-02-04T08:05:31.578Z,1010.71
2018-02-04T08:06:33.645Z,1010.73
2018-02-04T08:07:31.514Z,1010.74
2018-02-04T08:08:31.616Z,1010.73
2018-02-04T08:09:31.472Z,1010.79
2018-02-04T08:10:31.519Z,1010.83
2018-02-04T08:11:31.388Z,1010.84
2018-02-04T08:12:31.437Z,1010.82
2018-02-04T08:13:31.326Z,1010.89
2018-02-04T08:14:31.453Z,1010.92
2018-02-04T08:15:31.255Z,1010.87
2018-02-04T08:16:31.360Z,1010.89
2018-02-04T08:17:31.194Z,1010.94
2018-02-04T08:18:32.295Z,1010.95
2018-02-04T08:19:31.136Z,1010.95
2018-02-04T08:20:31.177Z,1010.95
2018-02-04T08:21:31.066Z,1010.98
2018-02-04T08:22:31.201Z,1010.94
2018-02-04T08:23:31.012Z,1010.98
2018-02-04T08:24:31.108Z,1011.00
2018-02-04T08:25:30.951Z,1011.02
2018-02-04T08:26:31.015Z,1011.08
2018-02-04T08:27:30.887Z,1011.04
2018-02-04T08:28:30.926Z,1011.08
2018-02-04T08:29:30.810Z,1011.10
2018-02-04T08:30:30.940Z,1011.13
2018-02-04T08:31:30.745Z,1011.18
2018-02-04T08:32:30.853Z,1011.20
2018-02-04T08:33:30.711Z,1011.24
2018-02-04T08:34:30.763Z,1011.25
2018-02-04T08:35:30.619Z,1011.26
2018-02-04T08:36:30.674Z,1011.27
2018-02-04T08:37:30.584Z,1011.22
2018-02-04T08:38:30.686Z,1011.25
2018-02-04T08:39:30.502Z,1011.27
2018-02-04T08:40:30.596Z,1011.36
2018-02-04T08:41:30.493Z,1011.34
2018-02-04T08:42:30.542Z,1011.36
2018-02-04T08:43:30.371Z,1011.36
2018-02-04T08:44:30.363Z,1011.35
2018-02-04T08:45:30.297Z,1011.40
2018-02-04T08:46:30.461Z,1011.42
2018-02-04T08:47:30.235Z,1011.46
2018-02-04T08:48:30.354Z,1011.51
2018-02-04T08:49:30.173Z,1011.52
2018-02-04T08:50:30.213Z,1011.48
2018-02-04T08:51:30.107Z,1011.53
2018-02-04T08:52:30.113Z,1011.52
2018-02-04T08:53:30.049Z,1011.52
2018-02-04T08:54:31.107Z,1011.54
2018-02-04T08:55:29.977Z,1011.62
2018-02-04T08:56:30.093Z,1011.65
2018-02-04T08:57:29.973Z,1011.61
2018-02-04T08:59:29.853Z,1011.66
2018-02-04T09:00:29.815Z,1011.71
2018-02-04T09:01:29.814Z,1011.72
2018-02-04T09:02:29.764Z,1011.77
2018-02-04T09:03:29.782Z,1011.75
2018-02-04T09:04:29.702Z,1011.74
2018-02-04T09:05:29.700Z,1011.80
2018-02-04T09:06:29.644Z,1011.78
2018-02-04T09:07:30.679Z,1011.78
2018-02-04T09:08:29.559Z,1011.84
2018-02-04T09:09:29.672Z,1011.87
2018-02-04T09:10:29.526Z,1011.91
2018-02-04T09:11:29.601Z,1011.85
2018-02-04T09:12:29.434Z,1011.93
2018-02-04T09:13:30.417Z,1011.91
2018-02-04T09:14:29.362Z,1011.93
2018-02-04T09:15:29.411Z,1011.98
2018-02-04T09:16:29.342Z,1011.96
2018-02-04T09:17:29.427Z,1011.98
2018-02-04T09:18:29.259Z,1011.97
2018-02-04T09:19:29.335Z,1011.97
2018-02-04T09:20:29.185Z,1011.93
2018-02-04T09:21:29.262Z,1012.02
2018-02-04T09:22:29.131Z,1012.05
2018-02-04T09:23:29.075Z,1012.03
2018-02-04T09:24:29.040Z,1012.02
2018-02-04T09:25:29.070Z,1012.01
2018-02-04T09:26:28.979Z,1012.05
2018-02-04T09:27:30.023Z,1012.07
2018-02-04T09:28:28.918Z,1012.06
2018-02-04T09:29:28.993Z,1012.09
2018-02-04T09:30:28.866Z,1012.07
2018-02-04T09:31:28.904Z,1012.13
2018-02-04T09:32:28.854Z,1012.15
2018-02-04T09:33:28.839Z,1012.13
2018-02-04T09:34:28.716Z,1012.16
2018-02-04T09:35:28.733Z,1012.18
2018-02-04T09:36:30.676Z,1012.21
2018-02-04T09:37:28.619Z,1012.19
2018-02-04T09:38:28.613Z,1012.25
2018-02-04T09:39:28.552Z,1012.28
2018-02-04T09:40:28.656Z,1012.27
2018-02-04T09:41:28.486Z,1012.27
2018-02-04T09:42:29.495Z,1012.31
2018-02-04T09:43:28.430Z,1012.32
2018-02-04T09:44:28.475Z,1012.34
2018-02-04T09:45:28.386Z,1012.36
2018-02-04T09:46:28.389Z,1012.35
2018-02-04T09:47:28.321Z,1012.40
2018-02-04T09:48:28.397Z,1012.43
2018-02-04T09:49:28.240Z,1012.43
2018-02-04T09:50:28.310Z,1012.43
2018-02-04T09:51:28.173Z,1012.45
2018-02-04T09:52:28.226Z,1012.42
2018-02-04T09:53:28.130Z,1012.45
2018-02-04T09:54:28.153Z,1012.47
2018-02-04T09:55:28.078Z,1012.44
2018-02-04T09:56:28.049Z,1012.44
2018-02-04T09:57:27.977Z,1012.44
2018-02-04T09:58:28.068Z,1012.51
2018-02-04T09:59:27.919Z,1012.53
2018-02-04T10:00:28.002Z,1012.57
2018-02-04T10:01:27.852Z,1012.56
2018-02-04T10:02:27.879Z,1012.64
2018-02-04T10:03:27.785Z,1012.67
2018-02-04T10:04:28.861Z,1012.71
2018-02-04T10:05:27.797Z,1012.78
2018-02-04T10:06:27.748Z,1012.79
2018-02-04T10:07:27.762Z,1012.75
2018-02-04T10:08:28.681Z,1012.82
2018-02-04T10:09:27.603Z,1012.81
2018-02-04T10:10:34.439Z,1012.83
2018-02-04T10:11:27.606Z,1012.85
2018-02-04T10:12:32.398Z,1012.87
2018-02-04T10:13:27.500Z,1012.89
2018-02-04T10:14:27.537Z,1012.91
2018-02-04T10:15:27.414Z,1012.92
2018-02-04T10:16:29.451Z,1012.94
2018-02-04T10:17:27.352Z,1012.94
2018-02-04T10:18:38.893Z,1012.97
2018-02-04T10:19:27.276Z,1012.97
2018-02-04T10:20:27.338Z,1013.06
2018-02-04T10:21:27.213Z,1013.03
2018-02-04T10:22:27.267Z,1013.04
2018-02-04T10:23:27.152Z,1013.06
2018-02-04T10:24:27.153Z,1013.07
2018-02-04T10:25:27.108Z,1013.10
2018-02-04T10:26:27.199Z,1013.13
2018-02-04T10:27:27.024Z,1013.12
2018-02-04T10:28:32.918Z,1013.10
2018-02-04T10:29:26.970Z,1013.16
2018-02-04T10:30:26.988Z,1013.18
2018-02-04T10:31:26.921Z,1013.20
2018-02-04T10:32:26.873Z,1013.21
2018-02-04T10:33:48.857Z,1013.17
2018-02-04T10:34:26.866Z,1013.20
2018-02-04T10:35:26.794Z,1013.19
2018-02-04T10:36:28.811Z,1013.18
2018-02-04T10:37:26.743Z,1013.21
2018-02-04T10:38:31.398Z,1013.26
2018-02-04T10:39:26.696Z,1013.26
2018-02-04T10:40:27.710Z,1013.25
2018-02-04T10:41:26.581Z,1013.31
2018-02-04T10:42:31.410Z,1013.29
2018-02-04T10:43:26.519Z,1013.26
2018-02-04T10:44:31.437Z,1013.27
2018-02-04T10:45:26.457Z,1013.31
2018-02-04T10:46:31.437Z,1013.25
2018-02-04T10:47:26.407Z,1013.28
2018-02-04T10:48:26.444Z,1013.26
2018-02-04T10:49:26.331Z,1013.26
2018-02-04T10:50:28.432Z,1013.28
2018-02-04T10:51:26.300Z,1013.29
2018-02-04T10:52:26.260Z,1013.34
2018-02-04T10:53:26.206Z,1013.33
2018-02-04T10:54:26.269Z,1013.32
2018-02-04T10:55:26.143Z,1013.37
2018-02-04T10:56:27.238Z,1013.45
2018-02-04T10:57:26.093Z,1013.45
2018-02-04T10:58:27.113Z,1013.47
2018-02-04T10:59:26.026Z,1013.49
2018-02-04T11:00:26.002Z,1013.54
2018-02-04T11:01:25.960Z,1013.55
2018-02-04T11:02:27.958Z,1013.64
2018-02-04T11:03:25.898Z,1013.61
2018-02-04T11:04:25.967Z,1013.64
2018-02-04T11:05:25.842Z,1013.70
2018-02-04T11:06:25.880Z,1013.66
2018-02-04T11:07:25.794Z,1013.67
2018-02-04T11:08:25.789Z,1013.68
2018-02-04T11:09:25.715Z,1013.69
2018-02-04T11:10:25.745Z,1013.72
2018-02-04T11:11:25.652Z,1013.69
2018-02-04T11:12:25.712Z,1013.72
2018-02-04T11:13:25.590Z,1013.70
2018-02-04T11:14:25.559Z,1013.72
2018-02-04T11:15:25.532Z,1013.72
2018-02-04T11:16:25.498Z,1013.77
2018-02-04T11:17:25.471Z,1013.79
2018-02-04T11:18:25.454Z,1013.80
2018-02-04T11:19:25.431Z,1013.81
2018-02-04T11:20:25.460Z,1013.82
2018-02-04T11:21:25.347Z,1013.85
2018-02-04T11:22:29.990Z,1013.86
2018-02-04T11:23:25.293Z,1013.86
2018-02-04T11:24:25.287Z,1013.89
2018-02-04T11:25:25.230Z,1013.89
2018-02-04T11:26:27.247Z,1013.89
2018-02-04T11:27:25.166Z,1013.95
2018-02-04T11:28:25.222Z,1013.93
2018-02-04T11:29:25.104Z,1013.93
2018-02-04T11:30:25.131Z,1013.96
2018-02-04T11:31:25.037Z,1013.99
2018-02-04T11:32:25.050Z,1014.02
2018-02-04T11:33:24.986Z,1013.99
2018-02-04T11:34:25.054Z,1014.01
2018-02-04T11:35:24.912Z,1014.01
2018-02-04T11:36:25.984Z,1014.05
2018-02-04T11:37:24.866Z,1014.07
2018-02-04T11:38:25.893Z,1014.09
2018-02-04T11:39:24.794Z,1014.08
2018-02-04T11:40:24.791Z,1014.08
2018-02-04T11:41:24.732Z,1014.16
2018-02-04T11:42:25.818Z,1014.13
2018-02-04T11:43:24.670Z,1014.20
2018-02-04T11:44:24.697Z,1014.21
2018-02-04T11:45:24.612Z,1014.25
2018-02-04T11:46:24.640Z,1014.24
2018-02-04T11:47:24.547Z,1014.22
2018-02-04T11:48:25.544Z,1014.27
2018-02-04T11:49:24.488Z,1014.23
2018-02-04T11:50:24.551Z,1014.27
2018-02-04T11:51:24.419Z,1014.35
2018-02-04T11:52:24.446Z,1014.33
2018-02-04T11:53:24.356Z,1014.36
2018-02-04T11:54:25.388Z,1014.36
2018-02-04T11:55:24.290Z,1014.43
2018-02-04T11:56:24.378Z,1014.41
2018-02-04T11:57:24.233Z,1014.36
2018-02-04T11:58:24.288Z,1014.40
2018-02-04T11:59:24.168Z,1014.40
2018-02-04T12:00:25.239Z,1014.46
2018-02-04T12:01:24.106Z,1014.44
2018-02-04T12:02:24.109Z,1014.46
2018-02-04T12:03:24.040Z,1014.49
2018-02-04T12:04:24.122Z,1014.48
2018-02-04T12:05:23.976Z,1014.52
2018-02-04T12:06:24.032Z,1014.52